Time;durP1;ratioP1;P1;durP2;ratioP2;P2;SDS_P1;SDS_P2;PMS_P1;PMS_P2;Temp;Humidity;BMP_temperature;BMP_pressure;BME280_temperature;BME280_humidity;BME280_pressure;Samples;Min_cycle;Max_cycle;Signal;HPM_P1;HPM_P2
2022/11/28 00:01:45;;;;;;;47.90;18.67;;;;;;;;;;5031898;28;20032;-78
2022/11/28 00:04:11;;;;;;;44.97;18.67;;;;;;;;;;5032088;28;20053;-78
2022/11/28 00:06:44;;;;;;;42.23;17.47;;;;;;;;;;5031484;28;20655;-77
2022/11/28 00:09:11;;;;;;;42.60;16.87;;;;;;;;;;5012412;28;20117;-78
2022/11/28 00:11:41;;;;;;;37.80;16.60;;;;;;;;;;5012867;28;20374;-80
2022/11/28 00:14:08;;;;;;;37.13;14.90;;;;;;;;;;5030043;28;20084;-79
2022/11/28 00:16:33;;;;;;;39.50;17.13;;;;;;;;;;5012291;28;20037;-79
2022/11/28 00:19:00;;;;;;;38.20;16.70;;;;;;;;;;5012186;28;20029;-80
2022/11/28 00:21:26;;;;;;;37.33;17.20;;;;;;;;;;5012162;28;20136;-78
2022/11/28 00:23:52;;;;;;;36.70;15.43;;;;;;;;;;5012259;28;20542;-78
2022/11/28 00:26:25;;;;;;;37.23;17.47;;;;;;;;;;5022942;28;20061;-77
2022/11/28 00:28:51;;;;;;;35.17;16.23;;;;;;;;;;5010338;28;20030;-78
2022/11/28 00:31:19;;;;;;;42.00;16.93;;;;;;;;;;4992088;28;20099;-78
2022/11/28 00:33:44;;;;;;;34.77;15.53;;;;;;;;;;5010294;28;20018;-78
2022/11/28 00:36:11;;;;;;;43.07;17.47;;;;;;;;;;5010154;28;20029;-78
2022/11/28 00:38:37;;;;;;;38.93;17.53;;;;;;;;;;5010869;28;20029;-78
2022/11/28 00:41:05;;;;;;;39.80;17.57;;;;;;;;;;4992833;28;20030;-78
2022/11/28 00:43:31;;;;;;;45.13;16.70;;;;;;;;;;5014601;28;20033;-78
2022/11/28 00:45:57;;;;;;;40.03;17.70;;;;;;;;;;4996808;28;20060;-79
2022/11/28 00:48:23;;;;;;;38.27;16.47;;;;;;;;;;4996274;28;20030;-78
2022/11/28 00:50:49;;;;;;;39.50;17.50;;;;;;;;;;5013929;28;20030;-78
2022/11/28 00:53:15;;;;;;;39.10;17.40;;;;;;;;;;4995914;28;20026;-78
2022/11/28 00:55:40;;;;;;;44.90;18.47;;;;;;;;;;4996463;28;20551;-78
2022/11/28 00:58:06;;;;;;;42.50;16.03;;;;;;;;;;5014108;28;20419;-79
2022/11/28 01:00:31;;;;;;;43.20;18.27;;;;;;;;;;4996941;28;20075;-79
2022/11/28 01:02:57;;;;;;;42.47;18.03;;;;;;;;;;4997240;28;20032;-79
2022/11/28 01:05:22;;;;;;;46.20;20.67;;;;;;;;;;5004497;28;20489;-79
2022/11/28 01:07:48;;;;;;;42.80;20.47;;;;;;;;;;5015765;28;20030;-79
2022/11/28 01:10:14;;;;;;;43.17;21.07;;;;;;;;;;5033831;28;20068;-78
2022/11/28 01:12:39;;;;;;;41.93;19.87;;;;;;;;;;5033953;28;20030;-79
2022/11/28 01:15:08;;;;;;;39.73;18.93;;;;;;;;;;5015503;28;20028;-78
2022/11/28 01:17:34;;;;;;;45.30;19.07;;;;;;;;;;5015716;28;20246;-78
2022/11/28 01:19:59;;;;;;;44.63;17.03;;;;;;;;;;5015227;28;20040;-79
2022/11/28 01:22:25;;;;;;;51.00;18.23;;;;;;;;;;5014836;28;20121;-79
2022/11/28 01:24:50;;;;;;;40.67;19.17;;;;;;;;;;5015014;28;20429;-79
2022/11/28 01:27:16;;;;;;;46.37;18.90;;;;;;;;;;5015173;28;20021;-79
2022/11/28 01:29:41;;;;;;;46.57;20.27;;;;;;;;;;5033018;28;20037;-78
2022/11/28 01:32:07;;;;;;;43.50;19.00;;;;;;;;;;5015048;28;20044;-78
2022/11/28 01:34:32;;;;;;;43.47;19.23;;;;;;;;;;5015527;28;20036;-77
2022/11/28 01:36:59;;;;;;;49.13;21.97;;;;;;;;;;5034254;28;20496;-78
2022/11/28 01:39:25;;;;;;;48.80;22.63;;;;;;;;;;5017413;28;20029;-77
2022/11/28 01:41:51;;;;;;;45.53;23.07;;;;;;;;;;5016811;28;20087;-78
2022/11/28 01:44:16;;;;;;;47.20;25.10;;;;;;;;;;5034158;28;20025;-79
2022/11/28 01:46:42;;;;;;;56.33;25.23;;;;;;;;;;5016300;28;20394;-79
2022/11/28 01:49:13;;;;;;;48.80;23.03;;;;;;;;;;5015012;28;20489;-79
2022/11/28 01:51:41;;;;;;;47.87;23.97;;;;;;;;;;5014803;28;20029;-79
2022/11/28 01:54:07;;;;;;;54.07;24.70;;;;;;;;;;5014201;28;20021;-79
2022/11/28 01:56:42;;;;;;;56.30;22.53;;;;;;;;;;5032468;28;20466;-78
2022/11/28 01:59:10;;;;;;;48.50;22.27;;;;;;;;;;5014257;28;20394;-78
2022/11/28 02:01:36;;;;;;;48.80;22.23;;;;;;;;;;5032177;28;20033;-78
2022/11/28 02:04:03;;;;;;;51.17;22.13;;;;;;;;;;5032282;28;20481;-79
2022/11/28 02:06:30;;;;;;;42.43;19.70;;;;;;;;;;5031969;28;20366;-78
2022/11/28 02:08:56;;;;;;;48.53;20.40;;;;;;;;;;5014596;28;20068;-79
2022/11/28 02:11:24;;;;;;;48.17;19.97;;;;;;;;;;5032200;28;20654;-78
2022/11/28 02:14:08;;;;;;;45.07;19.83;;;;;;;;;;5014396;28;20025;-78
2022/11/28 02:17:11;;;;;;;41.60;18.83;;;;;;;;;;5014474;28;20143;-79
2022/11/28 02:20:11;;;;;;;39.73;19.73;;;;;;;;;;5029854;28;20087;-79
2022/11/28 02:22:49;;;;;;;72.23;21.73;;;;;;;;;;5014132;28;20550;-79
2022/11/28 02:25:32;;;;;;;42.63;17.90;;;;;;;;;;5032343;28;20120;-79
2022/11/28 02:28:22;;;;;;;38.27;16.87;;;;;;;;;;5005753;28;20033;-78
2022/11/28 02:30:53;;;;;;;43.67;19.83;;;;;;;;;;5011092;28;20026;-78
2022/11/28 02:33:25;;;;;;;43.15;18.75;;;;;;;;;;5029669;28;20425;-77
2022/11/28 02:36:13;;;;;;;41.35;17.98;;;;;;;;;;5014093;28;20486;-79
2022/11/28 02:39:11;;;;;;;46.47;18.80;;;;;;;;;;5030301;28;20025;-78
2022/11/28 02:41:46;;;;;;;42.80;17.70;;;;;;;;;;4981193;28;20172;-78
2022/11/28 02:44:23;;;;;;;39.87;18.77;;;;;;;;;;5013921;28;20025;-79
2022/11/28 02:47:32;;;;;;;46.37;19.07;;;;;;;;;;5013949;28;20079;-79
2022/11/28 02:50:07;;;;;;;47.27;19.03;;;;;;;;;;5000574;28;20041;-78
2022/11/28 02:52:43;;;;;;;41.27;18.70;;;;;;;;;;5013919;28;20037;-78
2022/11/28 02:55:10;;;;;;;43.93;18.77;;;;;;;;;;5013770;28;20082;-78
2022/11/28 02:57:37;;;;;;;42.50;18.03;;;;;;;;;;5030038;28;20041;-78
2022/11/28 03:00:26;;;;;;;33.93;17.97;;;;;;;;;;5031405;28;20032;-78
2022/11/28 03:02:57;;;;;;;36.67;17.67;;;;;;;;;;5030779;28;20025;-79
2022/11/28 03:05:38;;;;;;;45.83;17.67;;;;;;;;;;5029919;28;20040;-78
2022/11/28 03:08:27;;;;;;;40.70;18.37;;;;;;;;;;5013026;28;20359;-77
2022/11/28 03:11:18;;;;;;;44.30;19.13;;;;;;;;;;5013001;28;20137;-78
2022/11/28 03:14:00;;;;;;;40.37;17.03;;;;;;;;;;5030798;28;20041;-78
2022/11/28 03:16:35;;;;;;;38.30;17.48;;;;;;;;;;5030969;28;20718;-78
2022/11/28 03:19:15;;;;;;;43.83;18.80;;;;;;;;;;5031051;28;20056;-79
2022/11/28 03:22:20;;;;;;;38.63;17.87;;;;;;;;;;5013254;28;20041;-78
2022/11/28 03:24:49;;;;;;;49.67;19.67;;;;;;;;;;5022272;28;20355;-79
2022/11/28 03:27:22;;;;;;;42.30;17.60;;;;;;;;;;5030818;28;20486;-78
2022/11/28 03:29:59;;;;;;;31.37;16.47;;;;;;;;;;5013291;28;20083;-77
2022/11/28 03:32:29;;;;;;;45.37;17.33;;;;;;;;;;5013907;28;20072;-78
2022/11/28 03:35:01;;;;;;;39.77;18.10;;;;;;;;;;5031279;28;20500;-79
2022/11/28 03:37:32;;;;;;;42.43;18.00;;;;;;;;;;5031187;28;20116;-78
2022/11/28 03:40:03;;;;;;;37.60;17.33;;;;;;;;;;5031148;28;20053;-79
2022/11/28 03:42:33;;;;;;;42.20;16.53;;;;;;;;;;5013799;28;20034;-79
2022/11/28 03:45:12;;;;;;;40.27;17.30;;;;;;;;;;5013871;28;20037;-79
2022/11/28 03:47:43;;;;;;;38.13;16.10;;;;;;;;;;5005108;28;20554;-79
2022/11/28 03:50:15;;;;;;;40.87;16.77;;;;;;;;;;5030713;28;20033;-79
2022/11/28 03:52:55;;;;;;;42.33;17.03;;;;;;;;;;5005895;28;20029;-78
2022/11/28 03:55:26;;;;;;;50.53;18.63;;;;;;;;;;5030415;28;20057;-78
2022/11/28 03:58:16;;;;;;;33.13;15.32;;;;;;;;;;5012996;28;20112;-77
2022/11/28 04:00:54;;;;;;;37.67;15.53;;;;;;;;;;5023341;28;20053;-78
2022/11/28 04:03:28;;;;;;;41.00;16.23;;;;;;;;;;5030301;28;20047;-78
2022/11/28 04:06:19;;;;;;;38.83;14.63;;;;;;;;;;5028296;28;20036;-79
2022/11/28 04:08:53;;;;;;;37.17;16.93;;;;;;;;;;5028812;28;20481;-78
2022/11/28 04:11:24;;;;;;;37.67;15.77;;;;;;;;;;5030333;28;20042;-79
2022/11/28 04:14:03;;;;;;;41.63;15.60;;;;;;;;;;5013135;28;20460;-79
2022/11/28 04:16:39;;;;;;;63.90;19.30;;;;;;;;;;5032121;28;20030;-79
2022/11/28 04:19:27;;;;;;;36.97;14.80;;;;;;;;;;5025386;28;20025;-78
2022/11/28 04:22:16;;;;;;;40.20;16.33;;;;;;;;;;5045466;28;20048;-78
2022/11/28 04:24:49;;;;;;;40.00;16.23;;;;;;;;;;4988938;28;20038;-78
2022/11/28 04:27:22;;;;;;;47.07;15.97;;;;;;;;;;5017304;28;20033;-79
2022/11/28 04:29:53;;;;;;;40.93;16.93;;;;;;;;;;5012102;28;20036;-77
2022/11/28 04:32:21;;;;;;;40.90;15.87;;;;;;;;;;5011952;28;20057;-78
2022/11/28 04:34:52;;;;;;;36.93;16.20;;;;;;;;;;5029819;28;20492;-78
2022/11/28 04:37:20;;;;;;;39.15;15.27;;;;;;;;;;5029280;28;20049;-79
2022/11/28 04:39:47;;;;;;;38.33;14.83;;;;;;;;;;5029633;28;20029;-78
2022/11/28 04:42:28;;;;;;;46.90;17.17;;;;;;;;;;5011826;28;20060;-77
2022/11/28 04:45:01;;;;;;;41.83;18.50;;;;;;;;;;5029942;28;20521;-78
2022/11/28 04:47:27;;;;;;;42.40;16.93;;;;;;;;;;5012173;28;20033;-78
2022/11/28 04:49:53;;;;;;;35.07;15.40;;;;;;;;;;5011834;28;20048;-77
2022/11/28 04:52:28;;;;;;;31.60;14.57;;;;;;;;;;5029745;28;20060;-78
2022/11/28 04:55:00;;;;;;;37.13;16.13;;;;;;;;;;5029941;28;20462;-79
2022/11/28 04:57:36;;;;;;;36.10;14.70;;;;;;;;;;5011993;28;20116;-78
2022/11/28 05:00:09;;;;;;;35.03;13.20;;;;;;;;;;5029652;28;20029;-78
2022/11/28 05:02:36;;;;;;;30.43;13.63;;;;;;;;;;5029433;28;20049;-79
2022/11/28 05:05:08;;;;;;;37.37;14.67;;;;;;;;;;5011804;28;20033;-78
2022/11/28 05:07:34;;;;;;;32.97;16.43;;;;;;;;;;5011675;28;20041;-79
2022/11/28 05:09:59;;;;;;;37.70;14.90;;;;;;;;;;5012187;28;20037;-79
2022/11/28 05:12:25;;;;;;;48.67;20.00;;;;;;;;;;5011721;28;20025;-79
2022/11/28 05:14:50;;;;;;;37.33;16.00;;;;;;;;;;5012489;28;20033;-79
2022/11/28 05:17:16;;;;;;;30.43;13.97;;;;;;;;;;5012877;28;20537;-79
2022/11/28 05:19:41;;;;;;;37.27;14.97;;;;;;;;;;5030477;28;20040;-79
2022/11/28 05:22:07;;;;;;;32.03;14.00;;;;;;;;;;5028647;28;20050;-78
2022/11/28 05:24:32;;;;;;;36.80;14.13;;;;;;;;;;5028566;28;20037;-78
2022/11/28 05:26:58;;;;;;;36.70;14.57;;;;;;;;;;5030311;28;20033;-79
2022/11/28 05:29:24;;;;;;;46.30;20.87;;;;;;;;;;5034004;28;20059;-79
2022/11/28 05:31:49;;;;;;;36.30;14.13;;;;;;;;;;5016448;28;20105;-78
2022/11/28 05:34:15;;;;;;;38.17;15.07;;;;;;;;;;5034010;28;20029;-78
2022/11/28 05:36:40;;;;;;;36.67;14.27;;;;;;;;;;5015818;28;20398;-78
2022/11/28 05:39:06;;;;;;;38.47;15.03;;;;;;;;;;5015636;28;20040;-79
2022/11/28 05:41:31;;;;;;;31.23;13.47;;;;;;;;;;5033870;28;20037;-79
2022/11/28 05:43:58;;;;;;;36.70;15.43;;;;;;;;;;5016182;28;20033;-78
2022/11/28 05:46:25;;;;;;;35.93;15.33;;;;;;;;;;5033221;28;20071;-79
2022/11/28 05:48:51;;;;;;;35.53;14.80;;;;;;;;;;5033269;28;20033;-80
2022/11/28 05:51:17;;;;;;;41.47;17.53;;;;;;;;;;5030856;28;20029;-79
2022/11/28 05:53:42;;;;;;;41.03;16.43;;;;;;;;;;5032507;28;20421;-79
2022/11/28 05:56:10;;;;;;;30.47;14.37;;;;;;;;;;5032299;28;20086;-80
2022/11/28 05:58:38;;;;;;;33.87;15.27;;;;;;;;;;5032589;28;20033;-78
2022/11/28 06:01:22;;;;;;;32.70;14.23;;;;;;;;;;5014437;28;20107;-79
2022/11/28 06:03:47;;;;;;;43.67;20.70;;;;;;;;;;5032404;28;20037;-80
2022/11/28 06:06:20;;;;;;;33.60;15.57;;;;;;;;;;5011591;28;20045;-78
2022/11/28 06:08:48;;;;;;;32.17;15.20;;;;;;;;;;5018358;28;20029;-75
2022/11/28 06:11:14;;;;;;;44.47;16.13;;;;;;;;;;5019762;28;20083;-76
2022/11/28 06:13:44;;;;;;;33.63;14.40;;;;;;;;;;5008505;28;20048;-76
2022/11/28 06:16:12;;;;;;;39.00;15.63;;;;;;;;;;5032420;28;20033;-79
2022/11/28 06:18:38;;;;;;;34.93;16.00;;;;;;;;;;5022924;28;20441;-78
2022/11/28 06:21:05;;;;;;;34.83;14.53;;;;;;;;;;5013581;28;20029;-82
2022/11/28 06:23:31;;;;;;;39.97;17.90;;;;;;;;;;5022500;28;20033;-77
2022/11/28 06:26:02;;;;;;;33.20;15.63;;;;;;;;;;5023074;28;20037;-77
2022/11/28 06:28:27;;;;;;;31.70;13.87;;;;;;;;;;5031451;28;20346;-76
2022/11/28 06:30:53;;;;;;;31.77;14.53;;;;;;;;;;5025992;28;20037;-75
2022/11/28 06:33:21;;;;;;;41.60;15.10;;;;;;;;;;5009218;28;20037;-82
2022/11/28 06:35:47;;;;;;;32.63;15.57;;;;;;;;;;5015905;28;20034;-76
2022/11/28 06:38:12;;;;;;;37.03;15.23;;;;;;;;;;5032917;28;20040;-76
2022/11/28 06:40:38;;;;;;;33.97;14.10;;;;;;;;;;5036976;28;20040;-78
2022/11/28 06:43:05;;;;;;;39.90;15.27;;;;;;;;;;5029233;28;20033;-78
2022/11/28 06:45:32;;;;;;;31.37;13.67;;;;;;;;;;5015882;28;20095;-75
2022/11/28 06:47:58;;;;;;;38.17;15.23;;;;;;;;;;5012665;28;20026;-74
2022/11/28 06:50:24;;;;;;;37.53;15.87;;;;;;;;;;5008391;28;20040;-76
2022/11/28 06:52:54;;;;;;;40.07;15.70;;;;;;;;;;5030083;28;20524;-77
2022/11/28 06:55:20;;;;;;;33.33;14.23;;;;;;;;;;5029565;28;20277;-77
2022/11/28 06:57:45;;;;;;;31.63;14.37;;;;;;;;;;5011205;28;20025;-79
2022/11/28 07:00:11;;;;;;;35.73;14.03;;;;;;;;;;5018852;28;20040;-78
2022/11/28 07:02:37;;;;;;;33.50;15.10;;;;;;;;;;5030404;28;20160;-79
2022/11/28 07:05:03;;;;;;;33.17;15.70;;;;;;;;;;5030905;28;20108;-80
2022/11/28 07:07:28;;;;;;;81.00;30.97;;;;;;;;;;5021075;28;20108;-80
2022/11/28 07:09:54;;;;;;;47.57;15.57;;;;;;;;;;5010847;28;20642;-74
2022/11/28 07:12:20;;;;;;;35.87;15.70;;;;;;;;;;5024126;28;20028;-78
2022/11/28 07:14:51;;;;;;;29.93;13.93;;;;;;;;;;5031029;28;20115;-79
2022/11/28 07:17:16;;;;;;;34.77;14.23;;;;;;;;;;5022989;28;20063;-76
2022/11/28 07:19:42;;;;;;;29.50;12.70;;;;;;;;;;5016474;28;20065;-74
2022/11/28 07:22:10;;;;;;;38.07;14.53;;;;;;;;;;5010851;28;20520;-77
2022/11/28 07:24:36;;;;;;;32.07;13.67;;;;;;;;;;5011286;28;20030;-78
2022/11/28 07:27:01;;;;;;;30.57;12.90;;;;;;;;;;5015291;28;20426;-77
2022/11/28 07:29:34;;;;;;;27.63;12.17;;;;;;;;;;5017024;28;20032;-79
2022/11/28 07:32:00;;;;;;;40.40;13.27;;;;;;;;;;5024442;28;20029;-78
2022/11/28 07:34:25;;;;;;;33.03;12.90;;;;;;;;;;5033451;28;20492;-77
2022/11/28 07:36:51;;;;;;;32.87;15.13;;;;;;;;;;5014346;28;20272;-80
2022/11/28 07:39:17;;;;;;;29.93;13.50;;;;;;;;;;5029620;28;20033;-80
2022/11/28 07:41:44;;;;;;;31.60;13.23;;;;;;;;;;5026058;28;20047;-79
2022/11/28 07:44:10;;;;;;;35.07;14.70;;;;;;;;;;5033454;28;20021;-77
2022/11/28 07:46:36;;;;;;;31.37;14.47;;;;;;;;;;5012180;28;20403;-77
2022/11/28 07:49:01;;;;;;;30.20;13.37;;;;;;;;;;5032090;28;20031;-79
2022/11/28 07:51:32;;;;;;;33.57;14.13;;;;;;;;;;5028911;28;20053;-76
2022/11/28 07:54:00;;;;;;;40.03;14.13;;;;;;;;;;5011245;28;20143;-75
2022/11/28 07:56:28;;;;;;;32.73;14.80;;;;;;;;;;5044026;28;20035;-75
2022/11/28 07:58:54;;;;;;;31.13;14.30;;;;;;;;;;5004616;28;20507;-78
2022/11/28 08:01:28;;;;;;;28.53;12.80;;;;;;;;;;5015314;28;20105;-77
2022/11/28 08:03:56;;;;;;;30.43;14.07;;;;;;;;;;5010598;28;20049;-77
2022/11/28 08:06:24;;;;;;;35.00;14.57;;;;;;;;;;5018855;28;20421;-81
2022/11/28 08:08:51;;;;;;;30.57;13.87;;;;;;;;;;5024831;28;20371;-77
2022/11/28 08:11:18;;;;;;;31.63;13.93;;;;;;;;;;5004693;28;20028;-78
2022/11/28 08:13:44;;;;;;;33.60;14.67;;;;;;;;;;5026629;28;20021;-77
2022/11/28 08:16:15;;;;;;;31.97;14.60;;;;;;;;;;5010667;28;20033;-78
2022/11/28 08:18:41;;;;;;;29.77;13.45;;;;;;;;;;5023842;28;20104;-77
2022/11/28 08:21:10;;;;;;;44.70;19.90;;;;;;;;;;4977489;28;20067;-76
2022/11/28 08:23:37;;;;;;;36.60;13.33;;;;;;;;;;5009762;28;20533;-75
2022/11/28 08:26:06;;;;;;;28.90;13.17;;;;;;;;;;5016171;28;20132;-79
2022/11/28 08:28:32;;;;;;;34.70;13.13;;;;;;;;;;5005771;28;20060;-75
2022/11/28 08:31:00;;;;;;;33.53;14.03;;;;;;;;;;5000854;28;20748;-79
2022/11/28 08:33:26;;;;;;;26.87;13.20;;;;;;;;;;5025958;28;20488;-77
2022/11/28 08:35:52;;;;;;;30.50;13.20;;;;;;;;;;5018968;28;20034;-77
2022/11/28 08:38:19;;;;;;;31.53;13.43;;;;;;;;;;4998864;28;20036;-74
2022/11/28 08:40:44;;;;;;;50.40;17.77;;;;;;;;;;5028897;28;20032;-77
2022/11/28 08:43:11;;;;;;;39.23;13.77;;;;;;;;;;5018979;28;20123;-78
2022/11/28 08:45:37;;;;;;;28.33;12.67;;;;;;;;;;5009432;28;20037;-77
2022/11/28 08:48:04;;;;;;;34.20;15.70;;;;;;;;;;5001133;28;20042;-77
2022/11/28 08:50:33;;;;;;;33.60;14.37;;;;;;;;;;5020524;28;20044;-76
2022/11/28 08:52:59;;;;;;;32.30;13.53;;;;;;;;;;5020259;28;20033;-78
2022/11/28 08:55:24;;;;;;;28.63;13.47;;;;;;;;;;5014496;28;20091;-78
2022/11/28 08:57:49;;;;;;;36.20;15.57;;;;;;;;;;5023856;28;20037;-77
2022/11/28 09:00:15;;;;;;;35.83;15.10;;;;;;;;;;5004588;28;20042;-77
2022/11/28 09:02:41;;;;;;;38.80;14.13;;;;;;;;;;5015728;28;20036;-78
2022/11/28 09:05:07;;;;;;;34.20;15.27;;;;;;;;;;5032641;28;20028;-78
2022/11/28 09:07:32;;;;;;;28.43;13.00;;;;;;;;;;5021498;28;20641;-77
2022/11/28 09:09:58;;;;;;;34.97;14.10;;;;;;;;;;5011942;28;20033;-79
2022/11/28 09:12:23;;;;;;;30.00;13.10;;;;;;;;;;5008445;28;20059;-78
2022/11/28 09:14:49;;;;;;;36.30;14.10;;;;;;;;;;5011824;28;20028;-79
2022/11/28 09:17:14;;;;;;;29.37;13.40;;;;;;;;;;5033153;28;20041;-78
2022/11/28 09:19:41;;;;;;;29.53;13.30;;;;;;;;;;5031891;28;20426;-78
2022/11/28 09:22:07;;;;;;;33.13;14.97;;;;;;;;;;4995896;28;20056;-77
2022/11/28 09:24:32;;;;;;;30.20;12.57;;;;;;;;;;5031960;28;20033;-78
2022/11/28 09:26:58;;;;;;;32.80;14.10;;;;;;;;;;5014431;28;20079;-76
2022/11/28 09:29:24;;;;;;;31.60;14.30;;;;;;;;;;5027592;28;20063;-78
2022/11/28 09:31:49;;;;;;;30.60;13.60;;;;;;;;;;5032071;28;20075;-79
2022/11/28 09:34:15;;;;;;;28.83;13.13;;;;;;;;;;5032644;28;20573;-78
2022/11/28 09:36:40;;;;;;;31.70;13.57;;;;;;;;;;5036542;28;20404;-78
2022/11/28 09:39:06;;;;;;;30.53;14.87;;;;;;;;;;5031616;28;20148;-77
2022/11/28 09:41:34;;;;;;;31.97;13.70;;;;;;;;;;5004036;28;20060;-78
2022/11/28 09:44:07;;;;;;;30.60;13.03;;;;;;;;;;5026416;28;20037;-78
2022/11/28 09:46:35;;;;;;;32.47;14.63;;;;;;;;;;5018344;28;20123;-79
2022/11/28 09:49:09;;;;;;;31.83;12.43;;;;;;;;;;5023709;28;20049;-80
2022/11/28 09:52:10;;;;;;;31.53;13.63;;;;;;;;;;4991228;28;20444;-78
2022/11/28 09:54:52;;;;;;;36.27;13.50;;;;;;;;;;4972587;28;20052;-79
2022/11/28 09:57:29;;;;;;;32.00;13.37;;;;;;;;;;5023017;28;20704;-79
2022/11/28 09:59:54;;;;;;;32.00;14.13;;;;;;;;;;5028952;28;20041;-79
2022/11/28 10:03:05;;;;;;;34.23;13.10;;;;;;;;;;5038565;28;20018;-77
2022/11/28 10:05:47;;;;;;;28.20;13.27;;;;;;;;;;4997884;28;20045;-79
2022/11/28 10:08:16;;;;;;;32.08;12.90;;;;;;;;;;5008127;28;20053;-79
2022/11/28 10:10:58;;;;;;;29.47;13.93;;;;;;;;;;5001562;28;20034;-79
2022/11/28 10:13:46;;;;;;;;;;;;;;;;;;4997874;28;20525;-78
2022/11/28 10:16:18;;;;;;;25.80;12.03;;;;;;;;;;5001320;28;19972;-79
2022/11/28 10:18:53;;;;;;;31.25;13.82;;;;;;;;;;4993668;28;20482;-79
2022/11/28 10:21:39;;;;;;;31.40;13.70;;;;;;;;;;4989291;28;20040;-78
2022/11/28 10:24:16;;;;;;;34.30;14.77;;;;;;;;;;5001805;28;20038;-78
2022/11/28 10:26:52;;;;;;;34.00;16.50;;;;;;;;;;4987181;28;20144;-78
2022/11/28 10:29:33;;;;;;;32.87;13.50;;;;;;;;;;5004553;28;20766;-77
2022/11/28 10:32:01;;;;;;;28.73;13.23;;;;;;;;;;5002393;28;20037;-77
2022/11/28 10:34:40;;;;;;;34.80;15.37;;;;;;;;;;5007226;28;20057;-77
2022/11/28 10:37:13;;;;;;;35.13;14.63;;;;;;;;;;4995101;28;20041;-75
2022/11/28 10:39:42;;;;;;;30.83;13.93;;;;;;;;;;5000362;28;20041;-77
2022/11/28 10:42:14;;;;;;;30.73;13.23;;;;;;;;;;5013960;28;20026;-77
2022/11/28 10:44:50;;;;;;;24.80;13.52;;;;;;;;;;5009747;28;20085;-77
2022/11/28 10:47:28;;;;;;;33.13;14.07;;;;;;;;;;5002681;28;20056;-76
2022/11/28 10:50:00;;;;;;;32.03;13.63;;;;;;;;;;5027507;28;20026;-77
2022/11/28 10:52:49;;;;;;;26.50;12.57;;;;;;;;;;4990337;28;20133;-77
2022/11/28 10:55:40;;;;;;;29.70;12.73;;;;;;;;;;5006574;28;20136;-77
2022/11/28 10:58:45;;;;;;;38.90;13.53;;;;;;;;;;5015497;28;20045;-76
2022/11/28 11:01:12;;;;;;;31.03;12.63;;;;;;;;;;4992414;28;20141;-78
2022/11/28 11:03:38;;;;;;;31.53;13.47;;;;;;;;;;5002114;28;20153;-77
2022/11/28 11:06:04;;;;;;;36.90;13.77;;;;;;;;;;5005393;28;20304;-79
2022/11/28 11:08:39;;;;;;;29.93;12.47;;;;;;;;;;5017136;28;20312;-77
2022/11/28 11:11:18;;;;;;;32.23;12.40;;;;;;;;;;5033784;28;20029;-77
2022/11/28 11:14:02;;;;;;;32.37;15.30;;;;;;;;;;5036334;28;20033;-78
2022/11/28 11:16:55;;;;;;;34.97;15.53;;;;;;;;;;5025930;28;20104;-78
2022/11/28 11:19:33;;;;;;;30.37;13.70;;;;;;;;;;5026234;28;20033;-77
2022/11/28 11:22:12;;;;;;;37.57;13.63;;;;;;;;;;5007613;28;20108;-79
2022/11/28 11:24:38;;;;;;;32.73;13.40;;;;;;;;;;5015204;28;20033;-75
2022/11/28 11:27:13;;;;;;;37.80;13.83;;;;;;;;;;5025898;28;20063;-78
2022/11/28 11:29:39;;;;;;;28.77;13.57;;;;;;;;;;5010528;28;20120;-79
2022/11/28 11:32:33;;;;;;;37.30;14.63;;;;;;;;;;5005576;28;20570;-77
2022/11/28 11:34:58;;;;;;;31.60;13.40;;;;;;;;;;5032926;28;20040;-79
2022/11/28 11:37:35;;;;;;;40.33;15.07;;;;;;;;;;5027367;28;20466;-79
2022/11/28 11:40:02;;;;;;;32.83;15.93;;;;;;;;;;5005921;28;20052;-78
2022/11/28 11:42:31;;;;;;;33.73;14.17;;;;;;;;;;5000947;28;20035;-78
2022/11/28 11:45:28;;;;;;;38.53;15.33;;;;;;;;;;5008104;28;20489;-79
2022/11/28 11:47:55;;;;;;;29.20;13.93;;;;;;;;;;5020104;28;20032;-79
2022/11/28 11:50:24;;;;;;;40.57;14.40;;;;;;;;;;5024016;28;20024;-80
2022/11/28 11:53:18;;;;;;;31.33;13.43;;;;;;;;;;5004649;28;20029;-79
2022/11/28 11:56:04;;;;;;;32.50;13.83;;;;;;;;;;5017375;28;20542;-75
2022/11/28 11:58:55;;;;;;;30.73;13.37;;;;;;;;;;5023225;28;20049;-79
2022/11/28 12:01:22;;;;;;;39.30;14.40;;;;;;;;;;5010043;28;20060;-77
2022/11/28 12:04:06;;;;;;;31.27;13.53;;;;;;;;;;5001097;28;20045;-77
2022/11/28 12:06:41;;;;;;;29.30;12.20;;;;;;;;;;5007204;28;20057;-82
2022/11/28 12:09:28;;;;;;;37.90;14.43;;;;;;;;;;5011690;28;20067;-80
2022/11/28 12:12:04;;;;;;;36.20;12.83;;;;;;;;;;5021395;28;20045;-81
2022/11/28 12:14:37;;;;;;;32.30;13.50;;;;;;;;;;5021726;28;20087;-75
2022/11/28 12:17:26;;;;;;;34.03;14.47;;;;;;;;;;5007249;28;20033;-79
2022/11/28 12:20:30;;;;;;;33.17;13.77;;;;;;;;;;5003040;28;20417;-83
2022/11/28 12:23:35;;;;;;;29.00;13.07;;;;;;;;;;5020420;28;20034;-77
2022/11/28 12:26:19;;;;;;;29.10;12.87;;;;;;;;;;5040646;28;20021;-79
2022/11/28 12:29:06;;;;;;;26.67;10.80;;;;;;;;;;5028877;28;20025;-79
2022/11/28 12:31:44;;;;;;;39.63;14.13;;;;;;;;;;5011889;28;20030;-78
2022/11/28 12:34:28;;;;;;;34.60;12.73;;;;;;;;;;5026065;28;20384;-78
2022/11/28 12:37:25;;;;;;;31.60;13.63;;;;;;;;;;5023013;28;20113;-78
2022/11/28 12:40:09;;;;;;;37.20;13.03;;;;;;;;;;5031728;28;20024;-79
2022/11/28 12:42:44;;;;;;;32.60;12.33;;;;;;;;;;5016064;28;20034;-80
2022/11/28 12:45:50;;;;;;;29.93;12.57;;;;;;;;;;5012827;28;20021;-79
2022/11/28 12:48:57;;;;;;;28.93;13.30;;;;;;;;;;5026867;28;20021;-78
2022/11/28 12:51:48;;;;;;;31.00;11.20;;;;;;;;;;5024110;28;20725;-78
2022/11/28 12:54:31;;;;;;;36.20;13.73;;;;;;;;;;5023011;28;20060;-79
2022/11/28 12:57:18;;;;;;;34.23;14.67;;;;;;;;;;5011650;28;20029;-78
2022/11/28 13:00:00;;;;;;;31.30;13.90;;;;;;;;;;5025473;28;20022;-78
2022/11/28 13:02:35;;;;;;;;;;;;;;;;;;5028647;28;20208;-78
2022/11/28 13:05:06;;;;;;;29.70;13.07;;;;;;;;;;5016834;28;20345;-79
2022/11/28 13:08:10;;;;;;;30.42;13.15;;;;;;;;;;5012906;28;20033;-78
2022/11/28 13:10:41;;;;;;;28.30;12.70;;;;;;;;;;5001705;28;20036;-78
2022/11/28 13:13:16;;;;;;;34.85;14.00;;;;;;;;;;5027834;28;20764;-77
2022/11/28 13:15:53;;;;;;;38.03;14.50;;;;;;;;;;5027104;28;20324;-78
2022/11/28 13:18:22;;;;;;;30.63;13.47;;;;;;;;;;5021882;28;20029;-78
2022/11/28 13:21:13;;;;;;;31.27;12.77;;;;;;;;;;5030970;28;20094;-79
2022/11/28 13:23:48;;;;;;;36.53;14.57;;;;;;;;;;4992364;28;20059;-78
2022/11/28 13:26:18;;;;;;;28.40;13.23;;;;;;;;;;5028737;28;20531;-78
2022/11/28 13:28:54;;;;;;;34.20;12.73;;;;;;;;;;5015300;28;20053;-79
2022/11/28 13:31:28;;;;;;;32.33;13.87;;;;;;;;;;5023247;28;20041;-80
2022/11/28 13:33:55;;;;;;;28.37;12.83;;;;;;;;;;5018181;28;20048;-79
2022/11/28 13:36:41;;;;;;;38.70;13.70;;;;;;;;;;5037066;28;20331;-78
2022/11/28 13:39:28;;;;;;;33.27;13.53;;;;;;;;;;5004811;28;20109;-78
2022/11/28 13:42:08;;;;;;;32.77;14.23;;;;;;;;;;5013439;28;20079;-79
2022/11/28 13:45:00;;;;;;;35.40;13.70;;;;;;;;;;5004371;28;20036;-80
2022/11/28 13:47:30;;;;;;;28.92;14.32;;;;;;;;;;5010957;28;20034;-79
2022/11/28 13:50:21;;;;;;;41.30;15.50;;;;;;;;;;5026109;28;20037;-80
2022/11/28 13:53:23;;;;;;;29.58;13.27;;;;;;;;;;5003618;28;20029;-79
2022/11/28 13:55:51;;;;;;;32.03;13.05;;;;;;;;;;4986264;28;20116;-80
2022/11/28 13:58:49;;;;;;;28.63;12.77;;;;;;;;;;5019042;28;20137;-81
2022/11/28 14:01:25;;;;;;;31.50;13.57;;;;;;;;;;4999181;28;20465;-79
2022/11/28 14:03:51;;;;;;;30.17;13.53;;;;;;;;;;5030684;28;20044;-79
2022/11/28 14:06:29;;;;;;;34.83;13.70;;;;;;;;;;5019041;28;20049;-79
2022/11/28 14:09:17;;;;;;;30.60;12.73;;;;;;;;;;5027978;28;20029;-79
2022/11/28 14:12:04;;;;;;;32.77;14.43;;;;;;;;;;5007457;28;20037;-79
2022/11/28 14:14:49;;;;;;;35.13;13.97;;;;;;;;;;5044061;28;20029;-80
2022/11/28 14:17:43;;;;;;;33.80;13.43;;;;;;;;;;5011227;28;20328;-79
2022/11/28 14:20:17;;;;;;;33.53;12.20;;;;;;;;;;5012160;28;20021;-78
2022/11/28 14:23:28;;;;;;;28.80;13.53;;;;;;;;;;5011724;28;20078;-79
2022/11/28 14:25:55;;;;;;;26.53;12.80;;;;;;;;;;5003896;28;20485;-80
2022/11/28 14:28:43;;;;;;;43.90;14.47;;;;;;;;;;5009453;28;20025;-80
2022/11/28 14:31:09;;;;;;;33.67;12.67;;;;;;;;;;5017074;28;20029;-80
2022/11/28 14:33:43;;;;;;;33.20;13.70;;;;;;;;;;5011041;28;20920;-78
2022/11/28 14:36:32;;;;;;;32.83;13.93;;;;;;;;;;4995194;28;20059;-80
2022/11/28 14:39:18;;;;;;;28.80;12.43;;;;;;;;;;5022460;28;20409;-78
2022/11/28 14:42:02;;;;;;;31.20;14.07;;;;;;;;;;5032394;28;20037;-80
2022/11/28 14:45:09;;;;;;;31.50;14.07;;;;;;;;;;5032133;28;20037;-81
2022/11/28 14:47:41;;;;;;;32.10;13.93;;;;;;;;;;5003501;28;20136;-79
2022/11/28 14:50:07;;;;;;;27.00;12.23;;;;;;;;;;5013847;28;20041;-79
2022/11/28 14:52:34;;;;;;;32.27;14.73;;;;;;;;;;5031270;28;20025;-80
2022/11/28 14:55:04;;;;;;;32.70;13.70;;;;;;;;;;5011706;28;20025;-80